首页
METAR-TAF:

METAR-TAF

机场 :

拉巴特-塞拉国际机场

拉巴特, 摩洛哥

纬度: 34-03N, 经度: 006-46W, 海拔: 84米

当前天气观测

该预报发布于20分钟前的11:30 UTC
风速6节,风向西转西北,在西转西南北转西北之间变化
温度 19°C
湿度 68%
气压 1010 hPa
能見度: 6000
散云层高于1300英尺
多云层高于1600英尺

METAR: GMME 191130Z 30006KT 250V340 6000 SCT013 BKN016 19/13 Q1010 NOSIG

时间: 12:50 (11:50 UTC)

预报

该预报发布于50分钟前的11:00 UTC
预报有效从19日的 12点(UTC)到 20日的 18点(UTC)
风速8节,风向
能見度: 6000
散云层高于1300英尺
多云层高于1600英尺
短暂存在
从 19日的 12点(UTC)到 19日的 24点(UTC)
能見度: 4000
多云层高于1300英尺, 塔状积云.
多云层高于1500英尺
阵雨
几率 40% :
短暂存在
从 19日的 12点(UTC)到 19日的 24点(UTC)
多云层高于1300英尺
散云层高于2300英尺, 积雨云.

TAF: GMME 191100Z 1912/2018 18008KT 6000 SCT013 BKN016 TEMPO 1912/1924 4000 SHRA BKN013TCU BKN015 PROB40 TEMPO 1912/1924 BKN013 SCT023CB TSSHRA

超过4000个机场的气象观测和天气预报(METAR&TAF报告)。

可查询的气象台以黄色和红色小点在地图上表示。

将鼠标移到小点上方,可查看气象台名称。

然后点击查看天气观测和预报。

如需切换地图:点击带黑十字的绿色按钮放大地图;点击带横线的绿色按钮缩小地图;或者点击绿色箭头查看邻近地区的地图。


METAR-TAF: